Карточка аэропорта UHMM

Внимание!
Информация на этой странице в стадии наполнения.
Если вы не увидели какой-то информации, или заметили неточность - пожалуйста сообщите нам!
Спасибо!
Команда RU-STAFF
Название аэропортаСокол
Название аэропорта (англ.)Sokol
Превышение575 ft. (175.3 m.)
Координаты59°54.648', 150°43.2'
Высота перехода10000 ft
Эшелон переходаQNH>=1013hPa: FL110; 1013hPa>QNH>=977hPa: FL120; QNH<977hPa: FL130
Коды ответчика6540-6577
Зона ОрВДМагадан РПИ (UHMM)
Данные METARUHMM 232000Z 15001MPS 0400 0150W R10/0175N FG VV002 06/06 Q1012 R10/19//60 RMK QBB080 QFE744 R28/00000MPS
Проноз погоды (TAF)UHMM 231655Z 2318/2424 22002MPS 0300 FG VV002 TEMPO 2318/2322 3100 BR BKN011 FM232200 24003G10MPS 9999 SCT040
NOTAMshow/hide NOTAM
AWOS   TABLE

Информация о ВПП


Диспетчерские позиции

Позывной Наименование органа УВД Частота
UHMM_TWRМагадан-Вышка120.8
UHMM_APPМагадан-Подход119.3



Спутниковое изображение